Time;durP1;ratioP1;P1;durP2;ratioP2;P2;SDS_P1;SDS_P2;PMS_P1;PMS_P2;Temp;Humidity;BMP_temperature;BMP_pressure;BME280_temperature;BME280_humidity;BME280_pressure;Samples;Min_cycle;Max_cycle;Signal;HPM_P1;HPM_P2
2022/03/13 00:02:04;;;;;;;33.50;26.33;;;6.50;64.60;;;;;;4925711;29;20490;-83
2022/03/13 00:04:31;;;;;;;36.23;26.70;;;6.40;64.80;;;;;;4930571;29;20863;-83
2022/03/13 00:06:58;;;;;;;34.03;25.23;;;6.40;64.60;;;;;;4922781;29;20525;-83
2022/03/13 00:09:26;;;;;;;34.30;25.33;;;6.30;64.60;;;;;;4928426;29;20983;-82
2022/03/13 00:11:53;;;;;;;31.20;24.43;;;6.20;65.10;;;;;;4929328;29;20846;-83
2022/03/13 00:14:24;;;;;;;29.40;24.63;;;6.00;65.50;;;;;;4939220;29;21206;-83
2022/03/13 00:16:50;;;;;;;30.70;25.47;;;5.90;65.70;;;;;;4934217;29;20489;-80
2022/03/13 00:19:19;;;;;;;31.57;25.30;;;5.90;65.60;;;;;;4939078;29;20926;-81
2022/03/13 00:21:52;;;;;;;30.40;23.73;;;6.00;64.80;;;;;;4926725;29;20548;-81
2022/03/13 00:24:20;;;;;;;33.37;24.03;;;5.90;64.80;;;;;;4922272;29;20554;-83
2022/03/13 00:26:49;;;;;;;28.93;23.33;;;5.90;64.60;;;;;;4937023;29;20471;-81
2022/03/13 00:29:15;;;;;;;31.73;25.63;;;5.90;64.60;;;;;;4938978;29;20463;-82
2022/03/13 00:31:42;;;;;;;31.50;25.03;;;5.90;64.80;;;;;;4928385;29;20461;-83
2022/03/13 00:34:09;;;;;;;39.00;25.27;;;5.80;65.00;;;;;;4926769;29;20452;-82
2022/03/13 00:36:37;;;;;;;28.23;23.97;;;5.70;65.30;;;;;;4925277;29;20544;-83
2022/03/13 00:39:04;;;;;;;37.17;25.57;;;5.70;65.60;;;;;;4921026;29;21064;-83
2022/03/13 00:41:30;;;;;;;28.77;22.90;;;5.80;65.60;;;;;;4919865;29;20453;-83
2022/03/13 00:43:57;;;;;;;35.07;23.33;;;5.80;65.30;;;;;;4919830;29;20450;-82
2022/03/13 00:46:24;;;;;;;27.60;23.80;;;5.80;65.40;;;;;;4937161;29;20471;-83
2022/03/13 00:48:50;;;;;;;34.97;25.67;;;5.80;65.30;;;;;;4941739;29;20967;-83
2022/03/13 00:51:17;;;;;;;33.87;24.67;;;5.60;65.30;;;;;;4926156;29;20453;-80
2022/03/13 00:53:45;;;;;;;30.00;25.47;;;5.50;66.00;;;;;;4940201;29;20443;-82
2022/03/13 00:56:12;;;;;;;27.10;23.57;;;5.40;66.80;;;;;;4930198;29;20472;-84
2022/03/13 00:58:40;;;;;;;33.47;23.50;;;5.40;67.40;;;;;;4935685;29;21227;-84
2022/03/13 01:01:07;;;;;;;34.23;23.73;;;5.40;67.30;;;;;;4938739;29;20460;-84
2022/03/13 01:03:48;;;;;;;29.33;23.73;;;5.30;67.40;;;;;;4946757;29;20558;-81
2022/03/13 01:06:16;;;;;;;30.53;24.20;;;5.20;67.60;;;;;;4937567;29;20476;-84
2022/03/13 01:08:44;;;;;;;29.60;24.90;;;5.20;67.90;;;;;;4928270;29;20523;-79
2022/03/13 01:11:13;;;;;;;30.40;24.27;;;5.20;67.80;;;;;;4921168;29;20453;-82
2022/03/13 01:13:40;;;;;;;31.23;24.83;;;5.20;67.70;;;;;;4920777;29;20512;-83
2022/03/13 01:16:13;;;;;;;30.93;24.30;;;5.20;67.80;;;;;;4928347;29;21025;-82
2022/03/13 01:18:43;;;;;;;33.63;25.30;;;5.20;68.00;;;;;;4936099;29;20505;-82
2022/03/13 01:21:10;;;;;;;34.40;23.97;;;5.10;68.00;;;;;;4919241;29;20457;-82
2022/03/13 01:23:38;;;;;;;28.10;22.73;;;5.00;68.30;;;;;;4928722;29;20456;-82
2022/03/13 01:26:37;;;;;;;31.13;22.60;;;5.00;68.80;;;;;;4929377;29;20474;-81
2022/03/13 01:29:07;;;;;;;32.80;24.40;;;4.90;68.90;;;;;;4919262;29;20449;-81
2022/03/13 01:31:35;;;;;;;31.13;27.53;;;4.90;69.60;;;;;;4918872;29;20880;-82
2022/03/13 01:34:03;;;;;;;32.43;25.97;;;4.90;69.90;;;;;;4924705;29;20466;-81
2022/03/13 01:36:30;;;;;;;29.07;22.90;;;4.80;70.00;;;;;;4966171;23;20503;-86
2022/03/13 01:39:00;;;;;;;30.90;22.67;;;4.80;70.10;;;;;;4926998;29;20489;-85
2022/03/13 01:41:28;;;;;;;30.57;22.47;;;4.70;69.90;;;;;;4938381;29;20442;-85
2022/03/13 01:43:57;;;;;;;28.43;20.67;;;4.70;69.90;;;;;;4931272;29;20472;-85
2022/03/13 01:46:24;;;;;;;30.30;22.70;;;4.60;70.00;;;;;;4925070;29;20477;-84
2022/03/13 01:48:57;;;;;;;28.38;22.23;;;4.60;70.10;;;;;;4901790;29;20450;-84
2022/03/13 01:51:25;;;;;;;26.50;21.63;;;4.50;70.40;;;;;;4920604;29;20208;-86
2022/03/13 01:53:53;;;;;;;33.33;22.03;;;4.60;70.40;;;;;;4939798;29;20449;-85
2022/03/13 01:56:21;;;;;;;28.10;20.95;;;4.70;70.20;;;;;;4939909;29;20461;-86
2022/03/13 01:58:51;;;;;;;33.07;21.17;;;4.80;69.50;;;;;;4936114;29;20208;-85
2022/03/13 02:01:20;;;;;;;29.60;21.30;;;4.70;69.20;;;;;;4926770;29;20459;-85
2022/03/13 02:03:48;;;;;;;30.27;21.27;;;4.70;69.20;;;;;;4923811;29;20768;-85
2022/03/13 02:06:15;;;;;;;30.67;22.37;;;4.60;69.20;;;;;;4919127;29;20547;-85
2022/03/13 02:08:44;;;;;;;30.30;22.90;;;4.60;69.70;;;;;;4918465;29;20452;-85
2022/03/13 02:11:11;;;;;;;30.43;22.33;;;4.70;69.40;;;;;;4918684;29;20464;-85
2022/03/13 02:13:37;;;;;;;23.92;18.90;;;4.60;69.10;;;;;;4908992;29;20468;-85
2022/03/13 02:16:05;;;;;;;27.23;21.70;;;4.50;69.50;;;;;;4912451;29;20619;-85
2022/03/13 02:18:33;;;;;;;28.77;22.50;;;4.50;70.00;;;;;;4901998;29;20485;-85
2022/03/13 02:21:00;;;;;;;25.20;20.73;;;4.50;70.30;;;;;;4899207;29;20836;-85
2022/03/13 02:23:30;;;;;;;28.67;21.97;;;4.40;70.60;;;;;;4899361;29;20519;-85
2022/03/13 02:25:59;;;;;;;25.83;21.73;;;4.50;71.00;;;;;;4900410;29;20477;-85
2022/03/13 02:28:27;;;;;;;28.27;20.42;;;4.50;70.80;;;;;;4903145;29;20460;-84
2022/03/13 02:30:58;;;;;;;30.53;20.47;;;4.50;70.90;;;;;;4923688;29;20190;-86
2022/03/13 02:33:25;;;;;;;30.40;22.20;;;4.40;71.20;;;;;;4918770;29;20454;-85
2022/03/13 02:35:55;;;;;;;30.57;23.07;;;4.40;71.50;;;;;;4898813;29;20288;-85
2022/03/13 02:38:22;;;;;;;32.20;21.50;;;4.40;71.90;;;;;;4898730;29;20497;-85
2022/03/13 02:40:50;;;;;;;26.23;22.10;;;4.30;72.00;;;;;;4901645;29;20475;-85
2022/03/13 02:43:18;;;;;;;30.48;21.85;;;4.30;72.50;;;;;;4923982;29;20463;-85
2022/03/13 02:45:45;;;;;;;32.97;22.00;;;4.30;72.10;;;;;;4917575;29;20207;-84
2022/03/13 02:48:12;;;;;;;27.58;20.13;;;4.30;71.80;;;;;;4914634;29;20459;-86
2022/03/13 02:50:40;;;;;;;30.07;22.23;;;4.20;72.10;;;;;;4909461;29;20203;-84
2022/03/13 02:53:08;;;;;;;31.13;22.42;;;4.10;72.00;;;;;;4918794;29;20440;-84
2022/03/13 02:55:36;;;;;;;28.57;21.90;;;4.10;72.50;;;;;;4917192;29;20204;-84
2022/03/13 02:58:05;;;;;;;32.85;23.75;;;4.10;72.90;;;;;;4902662;29;20459;-84
2022/03/13 03:00:46;;;;;;;28.27;19.83;;;4.20;72.80;;;;;;4913986;29;20235;-84
2022/03/13 03:03:14;;;;;;;27.15;20.35;;;4.20;72.70;;;;;;4918979;29;20455;-84
2022/03/13 03:05:41;;;;;;;26.00;21.93;;;4.20;72.20;;;;;;4923074;29;20208;-84
2022/03/13 03:08:09;;;;;;;29.10;22.30;;;4.00;72.40;;;;;;4899469;29;20453;-84
2022/03/13 03:10:37;;;;;;;27.08;20.58;;;4.00;72.60;;;;;;4899707;29;20218;-84
2022/03/13 03:13:07;;;;;;;27.95;22.33;;;3.90;72.40;;;;;;4899494;29;20211;-84
2022/03/13 03:15:34;;;;;;;24.10;19.10;;;3.90;73.00;;;;;;4902358;29;20205;-84
2022/03/13 03:18:03;;;;;;;34.45;22.38;;;3.90;72.40;;;;;;4900630;29;20456;-84
2022/03/13 03:20:30;;;;;;;30.42;21.55;;;3.90;72.60;;;;;;4901183;29;20342;-84
2022/03/13 03:22:57;;;;;;;29.85;22.65;;;3.90;72.70;;;;;;4903463;29;20212;-84
2022/03/13 03:25:26;;;;;;;29.88;20.10;;;3.90;73.00;;;;;;4910930;29;20207;-84
2022/03/13 03:27:54;;;;;;;29.05;21.25;;;3.90;72.30;;;;;;4941358;29;20227;-85
2022/03/13 03:30:22;;;;;;;34.58;24.80;;;3.90;72.20;;;;;;4944240;29;20209;-85
2022/03/13 03:32:49;;;;;;;28.25;20.35;;;3.90;72.20;;;;;;4944018;29;20204;-86
2022/03/13 03:35:19;;;;;;;25.63;21.33;;;3.90;72.40;;;;;;4944803;29;20210;-87
2022/03/13 03:37:46;;;;;;;27.13;21.20;;;3.80;72.60;;;;;;4942376;29;20243;-86
2022/03/13 03:40:12;;;;;;;24.05;20.35;;;3.70;72.80;;;;;;4935270;29;20313;-87
2022/03/13 03:42:39;;;;;;;23.92;19.90;;;3.80;72.80;;;;;;4944058;29;20190;-86
2022/03/13 03:45:07;;;;;;;27.63;22.65;;;3.70;72.90;;;;;;4944118;29;20187;-86
2022/03/13 03:47:35;;;;;;;26.07;21.30;;;3.70;72.90;;;;;;4943944;29;20235;-86
2022/03/13 03:50:03;;;;;;;30.73;21.65;;;3.70;73.00;;;;;;4944132;29;20447;-86
2022/03/13 03:52:30;;;;;;;27.67;19.83;;;3.70;72.70;;;;;;4944653;29;20194;-86
2022/03/13 03:54:57;;;;;;;27.00;19.00;;;3.80;72.00;;;;;;4944726;29;20520;-87
2022/03/13 03:57:23;;;;;;;24.80;19.30;;;3.80;71.60;;;;;;4943910;29;20211;-87
2022/03/13 03:59:50;;;;;;;29.85;21.00;;;3.90;71.70;;;;;;4943770;29;20212;-87
2022/03/13 04:02:17;;;;;;;26.27;20.27;;;3.80;71.60;;;;;;4928124;29;20227;-87
2022/03/13 04:04:45;;;;;;;30.42;23.15;;;3.80;72.10;;;;;;4905809;29;20203;-86
2022/03/13 04:07:11;;;;;;;26.75;20.83;;;3.70;72.30;;;;;;4905754;29;20212;-85
2022/03/13 04:09:38;;;;;;;27.52;21.00;;;3.80;72.40;;;;;;4924386;29;20196;-86
2022/03/13 04:12:08;;;;;;;27.48;21.05;;;3.80;72.00;;;;;;4940404;29;20404;-84
2022/03/13 04:14:35;;;;;;;29.48;22.40;;;3.70;71.90;;;;;;4911414;29;20398;-84
2022/03/13 04:17:02;;;;;;;24.38;19.98;;;3.80;72.10;;;;;;4913043;29;20235;-85
2022/03/13 04:19:29;;;;;;;30.77;23.67;;;3.70;72.40;;;;;;4914688;29;20230;-84
2022/03/13 04:21:57;;;;;;;26.48;21.27;;;3.70;72.50;;;;;;4921921;29;20253;-85
2022/03/13 04:24:25;;;;;;;26.27;20.33;;;3.80;72.10;;;;;;4920807;29;20207;-84
2022/03/13 04:26:52;;;;;;;29.63;22.00;;;3.70;72.10;;;;;;4920000;29;20253;-84
2022/03/13 04:29:19;;;;;;;26.10;21.02;;;3.70;72.30;;;;;;4923171;29;20199;-84
2022/03/13 04:31:46;;;;;;;26.60;21.58;;;3.70;72.40;;;;;;4924747;29;20215;-85
2022/03/13 04:34:13;;;;;;;26.90;21.40;;;3.70;72.40;;;;;;4928739;29;20580;-85
2022/03/13 04:36:40;;;;;;;29.98;23.70;;;3.70;72.70;;;;;;4915250;29;20231;-85
2022/03/13 04:39:09;;;;;;;30.38;22.08;;;3.60;73.00;;;;;;4914129;29;20219;-85
2022/03/13 04:41:37;;;;;;;30.33;23.27;;;3.60;73.40;;;;;;4911528;29;20208;-85
2022/03/13 04:44:05;;;;;;;28.88;22.52;;;3.50;74.20;;;;;;4915274;29;20208;-86
2022/03/13 04:46:32;;;;;;;31.77;23.95;;;3.40;75.10;;;;;;4929298;29;20234;-85
2022/03/13 04:48:59;;;;;;;30.50;23.17;;;3.40;76.00;;;;;;4937711;29;20224;-85
2022/03/13 04:51:26;;;;;;;26.90;21.88;;;3.40;76.50;;;;;;4921436;29;20217;-86
2022/03/13 04:53:53;;;;;;;29.23;23.45;;;3.30;77.10;;;;;;4920279;29;20213;-85
2022/03/13 04:56:21;;;;;;;29.60;23.48;;;3.30;77.40;;;;;;4917515;29;20235;-85
2022/03/13 04:58:47;;;;;;;42.35;24.55;;;3.40;77.10;;;;;;4909859;29;20219;-85
2022/03/13 05:01:14;;;;;;;26.08;21.67;;;3.40;77.10;;;;;;4903336;29;20616;-85
2022/03/13 05:03:41;;;;;;;33.35;25.05;;;3.40;77.00;;;;;;4903795;29;20275;-85
2022/03/13 05:06:08;;;;;;;28.65;21.17;;;3.40;76.70;;;;;;4905258;29;20219;-85
2022/03/13 05:08:36;;;;;;;30.38;23.58;;;3.40;76.60;;;;;;4919133;29;20431;-86
2022/03/13 05:11:05;;;;;;;29.75;21.27;;;3.40;76.60;;;;;;4918882;29;20211;-85
2022/03/13 05:13:33;;;;;;;30.77;22.65;;;3.40;76.90;;;;;;4926031;29;20192;-85
2022/03/13 05:15:59;;;;;;;33.20;23.90;;;3.30;77.10;;;;;;4910017;29;20258;-84
2022/03/13 05:18:26;;;;;;;31.98;22.75;;;3.30;77.80;;;;;;4901168;29;20666;-85
2022/03/13 05:20:53;;;;;;;30.02;23.02;;;3.30;77.90;;;;;;4900593;29;20231;-85
2022/03/13 05:23:20;;;;;;;33.70;23.45;;;3.30;78.80;;;;;;4892011;29;20203;-85
2022/03/13 05:25:47;;;;;;;34.10;22.35;;;3.20;78.50;;;;;;4941248;29;20517;-85
2022/03/13 05:28:13;;;;;;;35.72;23.38;;;3.20;79.10;;;;;;4933414;29;20234;-85
2022/03/13 05:30:42;;;;;;;27.80;23.00;;;3.20;79.10;;;;;;4922212;29;20209;-86
2022/03/13 05:33:09;;;;;;;29.65;22.25;;;3.20;79.50;;;;;;4904765;29;20231;-85
2022/03/13 05:35:36;;;;;;;30.58;24.40;;;3.20;79.30;;;;;;4902651;29;20203;-85
2022/03/13 05:38:03;;;;;;;28.52;21.27;;;3.20;79.50;;;;;;4902920;29;20201;-85
2022/03/13 05:40:32;;;;;;;30.15;21.67;;;3.20;79.60;;;;;;4923171;29;20226;-85
2022/03/13 05:42:59;;;;;;;30.13;23.67;;;3.20;79.80;;;;;;4927327;29;20210;-85
2022/03/13 05:45:28;;;;;;;27.88;22.90;;;3.20;79.60;;;;;;4917497;29;20203;-86
2022/03/13 05:47:58;;;;;;;32.13;23.13;;;3.20;79.40;;;;;;4916901;29;20223;-85
2022/03/13 05:50:26;;;;;;;27.90;21.33;;;3.20;79.40;;;;;;4935101;29;20207;-86
2022/03/13 05:52:56;;;;;;;25.88;22.27;;;3.20;79.40;;;;;;4935512;29;20254;-86
2022/03/13 05:55:25;;;;;;;29.77;24.08;;;3.30;79.70;;;;;;4921482;29;20200;-86
2022/03/13 05:57:53;;;;;;;31.52;23.90;;;3.20;79.80;;;;;;4920493;29;20784;-86
2022/03/13 06:00:21;;;;;;;33.33;24.15;;;3.20;79.90;;;;;;4931088;29;20229;-86
2022/03/13 06:02:48;;;;;;;30.73;22.75;;;3.30;80.00;;;;;;4916089;29;20224;-86
2022/03/13 06:05:18;;;;;;;29.45;23.20;;;3.30;79.70;;;;;;4915363;29;20252;-86
2022/03/13 06:07:46;;;;;;;30.20;23.60;;;3.30;79.70;;;;;;4917906;29;20658;-87
2022/03/13 06:10:13;;;;;;;30.50;24.15;;;3.30;80.00;;;;;;4917468;29;20207;-86
2022/03/13 06:12:40;;;;;;;29.58;23.55;;;3.40;80.00;;;;;;4926550;29;20207;-87
2022/03/13 06:15:11;;;;;;;32.63;23.33;;;3.50;79.70;;;;;;4933876;29;20208;-87
2022/03/13 06:17:38;;;;;;;31.95;23.10;;;3.50;79.50;;;;;;4927844;29;20207;-85
2022/03/13 06:20:07;;;;;;;29.58;22.58;;;3.50;79.30;;;;;;4936933;29;20358;-85
2022/03/13 06:22:35;;;;;;;28.27;22.20;;;3.50;78.70;;;;;;4935776;29;20187;-84
2022/03/13 06:25:02;;;;;;;33.40;23.33;;;3.60;78.70;;;;;;4929729;29;20209;-85
2022/03/13 06:27:30;;;;;;;29.92;22.35;;;3.60;78.10;;;;;;4903125;29;20224;-85
2022/03/13 06:29:57;;;;;;;33.92;21.90;;;3.70;77.40;;;;;;4921058;29;20213;-85
2022/03/13 06:32:27;;;;;;;31.42;21.70;;;3.80;77.20;;;;;;4914669;29;20212;-85
2022/03/13 06:34:54;;;;;;;33.30;21.70;;;3.80;76.50;;;;;;4901435;29;20244;-85
2022/03/13 06:37:20;;;;;;;30.25;23.02;;;3.80;76.40;;;;;;4911047;29;20499;-85
2022/03/13 06:39:51;;;;;;;24.52;21.77;;;3.90;75.60;;;;;;4917629;29;20240;-85
2022/03/13 06:42:18;;;;;;;30.33;22.73;;;3.90;75.30;;;;;;4907834;29;20294;-86
2022/03/13 06:44:45;;;;;;;29.23;21.52;;;4.00;75.30;;;;;;4918840;29;20200;-85
2022/03/13 06:47:13;;;;;;;30.00;23.30;;;4.00;74.90;;;;;;4914256;29;20230;-85
2022/03/13 06:49:41;;;;;;;34.27;22.70;;;4.00;74.80;;;;;;4906787;29;20989;-85
2022/03/13 06:52:08;;;;;;;25.77;20.47;;;4.10;74.50;;;;;;4919761;29;20840;-85
2022/03/13 06:54:35;;;;;;;27.70;20.97;;;4.10;74.10;;;;;;4917181;29;20471;-85
2022/03/13 06:57:03;;;;;;;25.98;19.42;;;4.10;73.00;;;;;;4921741;29;20452;-85
2022/03/13 06:59:30;;;;;;;25.88;18.23;;;4.10;71.20;;;;;;4919718;29;20262;-85
2022/03/13 07:01:56;;;;;;;22.10;17.67;;;4.10;70.10;;;;;;4923069;29;20210;-85
2022/03/13 07:04:23;;;;;;;22.33;19.25;;;4.10;68.80;;;;;;4911056;29;20279;-84
2022/03/13 07:06:50;;;;;;;22.17;17.90;;;4.20;68.20;;;;;;4920434;29;20227;-84
2022/03/13 07:09:16;;;;;;;21.35;17.25;;;4.20;67.10;;;;;;4926289;29;20440;-85
2022/03/13 07:11:46;;;;;;;18.17;16.20;;;4.30;67.00;;;;;;4910756;29;20269;-85
2022/03/13 07:14:18;;;;;;;16.90;15.10;;;4.30;66.30;;;;;;4937296;29;20468;-83
2022/03/13 07:16:45;;;;;;;22.50;16.20;;;4.30;65.20;;;;;;4940695;29;20454;-85
2022/03/13 07:19:12;;;;;;;19.65;15.52;;;4.40;64.70;;;;;;4926835;29;20204;-85
2022/03/13 07:21:39;;;;;;;20.55;16.10;;;4.40;63.60;;;;;;4913678;29;20229;-85
2022/03/13 07:24:06;;;;;;;20.93;15.83;;;4.50;63.10;;;;;;4909892;29;20803;-85
2022/03/13 07:26:33;;;;;;;22.40;15.98;;;4.50;62.40;;;;;;4931434;29;20539;-86
2022/03/13 07:29:01;;;;;;;21.45;15.50;;;4.60;61.90;;;;;;4932178;29;20587;-85
2022/03/13 07:31:30;;;;;;;18.17;14.85;;;4.70;60.90;;;;;;4927449;29;20199;-85
2022/03/13 07:33:57;;;;;;;16.52;14.82;;;4.70;60.40;;;;;;4925661;29;20211;-85
2022/03/13 07:36:24;;;;;;;16.10;14.23;;;4.70;60.00;;;;;;4911500;29;20248;-85
2022/03/13 07:38:51;;;;;;;21.05;16.17;;;4.80;59.60;;;;;;4906153;29;20986;-85
2022/03/13 07:41:17;;;;;;;18.42;14.95;;;4.90;59.50;;;;;;4923078;29;20247;-85
2022/03/13 07:43:44;;;;;;;18.13;13.27;;;5.00;59.00;;;;;;4952459;23;20219;-87
2022/03/13 07:46:11;;;;;;;15.33;13.73;;;5.20;58.60;;;;;;4927149;29;20454;-87
2022/03/13 07:48:39;;;;;;;17.80;14.43;;;5.30;58.10;;;;;;4925954;29;20896;-87
2022/03/13 07:51:07;;;;;;;18.87;13.10;;;5.60;57.40;;;;;;4938691;29;20516;-86
2022/03/13 07:53:35;;;;;;;14.40;12.60;;;6.30;56.30;;;;;;4943825;29;20452;-87
2022/03/13 07:56:02;;;;;;;16.00;12.50;;;7.10;54.60;;;;;;4930223;29;20454;-86
2022/03/13 07:58:29;;;;;;;15.87;14.17;;;7.40;52.80;;;;;;4917302;29;20489;-87
2022/03/13 08:00:55;;;;;;;17.30;13.47;;;7.20;52.50;;;;;;4912196;29;20859;-87
2022/03/13 08:03:24;;;;;;;17.13;15.27;;;7.00;52.60;;;;;;4926539;29;20478;-87
2022/03/13 08:05:53;;;;;;;15.90;14.20;;;7.10;52.30;;;;;;4929238;29;20458;-88
2022/03/13 08:08:20;;;;;;;15.77;14.20;;;7.50;51.60;;;;;;4915526;29;20460;-88
2022/03/13 08:10:47;;;;;;;17.23;13.40;;;8.10;50.70;;;;;;4914464;29;20883;-88
2022/03/13 08:13:15;;;;;;;14.80;13.27;;;8.60;49.50;;;;;;4910677;29;20475;-88
2022/03/13 08:15:42;;;;;;;16.30;13.70;;;9.10;48.80;;;;;;4915945;29;20455;-89
2022/03/13 08:18:13;;;;;;;17.93;14.77;;;9.10;47.50;;;;;;4928558;29;20454;-88
2022/03/13 08:20:42;;;;;;;17.30;14.67;;;9.20;48.20;;;;;;4927645;29;20486;-88
2022/03/13 08:23:11;;;;;;;17.23;14.37;;;9.70;47.50;;;;;;4926093;29;20845;-88
2022/03/13 08:25:38;;;;;;;15.83;13.93;;;10.30;45.70;;;;;;4907218;29;20954;-88
2022/03/13 08:28:06;;;;;;;17.63;15.70;;;10.60;45.10;;;;;;4901412;29;20491;-88
2022/03/13 08:30:33;;;;;;;18.30;15.63;;;11.00;45.00;;;;;;4920430;29;20434;-88
2022/03/13 08:33:00;;;;;;;19.73;16.50;;;11.10;44.50;;;;;;4922583;29;20479;-88
2022/03/13 08:35:28;;;;;;;18.80;16.57;;;11.40;44.50;;;;;;4923942;29;20464;-89
2022/03/13 08:37:55;;;;;;;19.10;17.10;;;11.90;44.20;;;;;;4923805;29;20495;-89
2022/03/13 08:40:26;;;;;;;19.07;17.07;;;12.50;43.20;;;;;;4918569;29;20565;-89
2022/03/13 08:42:52;;;;;;;19.27;16.97;;;12.80;42.50;;;;;;4917782;29;20484;-88
2022/03/13 08:45:19;;;;;;;19.77;17.73;;;13.20;42.60;;;;;;4924027;29;20442;-88
2022/03/13 08:47:47;;;;;;;19.53;17.63;;;13.50;42.20;;;;;;4923625;29;20431;-88
2022/03/13 08:50:16;;;;;;;25.63;19.03;;;13.50;42.20;;;;;;4923619;29;20479;-87
2022/03/13 08:52:48;;;;;;;20.30;18.00;;;13.60;42.20;;;;;;4924170;29;20451;-88
2022/03/13 08:55:17;;;;;;;20.80;18.60;;;14.10;41.40;;;;;;4923826;29;20471;-87
2022/03/13 08:57:45;;;;;;;22.70;18.97;;;14.30;40.80;;;;;;4924250;29;20470;-88
2022/03/13 09:00:14;;;;;;;20.27;17.87;;;14.30;40.80;;;;;;4917550;29;20459;-88
2022/03/13 09:02:42;;;;;;;23.33;20.83;;;14.80;41.00;;;;;;4912873;29;20481;-88
2022/03/13 09:05:10;;;;;;;19.57;17.53;;;15.60;40.20;;;;;;4914061;29;20475;-86
2022/03/13 09:07:38;;;;;;;22.13;19.70;;;15.80;38.80;;;;;;4918405;29;20476;-88
2022/03/13 09:10:08;;;;;;;20.63;18.67;;;16.50;38.30;;;;;;4927475;29;20457;-87
2022/03/13 09:12:35;;;;;;;22.63;20.53;;;16.90;37.30;;;;;;4920480;29;20467;-86
2022/03/13 09:15:04;;;;;;;24.23;19.90;;;17.20;37.20;;;;;;4922738;29;20454;-86
2022/03/13 09:17:31;;;;;;;23.20;20.80;;;17.50;36.40;;;;;;4914014;29;20448;-86
2022/03/13 09:19:58;;;;;;;22.43;19.00;;;18.10;35.90;;;;;;4901368;29;20448;-87
2022/03/13 09:22:30;;;;;;;21.83;19.70;;;18.50;35.60;;;;;;4908961;29;20479;-87
2022/03/13 09:24:58;;;;;;;22.23;19.97;;;19.50;34.30;;;;;;4905005;29;20464;-85
2022/03/13 09:27:26;;;;;;;23.83;21.40;;;19.80;33.60;;;;;;4902441;29;20444;-88
2022/03/13 09:29:53;;;;;;;23.23;20.87;;;19.70;34.10;;;;;;4900479;29;20451;-88
2022/03/13 09:32:22;;;;;;;24.03;21.53;;;20.70;33.00;;;;;;4901398;29;20696;-88
2022/03/13 09:34:49;;;;;;;22.50;20.20;;;21.10;32.80;;;;;;4915496;29;20456;-87
2022/03/13 09:37:16;;;;;;;22.53;20.43;;;20.90;32.40;;;;;;4908069;29;20503;-86
2022/03/13 09:39:42;;;;;;;22.23;20.23;;;20.70;32.70;;;;;;4919682;29;20449;-87
2022/03/13 09:42:09;;;;;;;23.40;21.10;;;21.40;32.40;;;;;;4918786;29;20503;-87
2022/03/13 09:44:36;;;;;;;23.17;20.90;;;20.90;32.20;;;;;;4926167;29;20831;-88
2022/03/13 09:47:05;;;;;;;22.80;20.50;;;21.60;32.80;;;;;;4927479;29;20509;-86
2022/03/13 09:49:35;;;;;;;24.03;21.70;;;22.30;32.30;;;;;;4926506;29;20463;-87
2022/03/13 09:52:13;;;;;;;23.77;21.53;;;22.10;30.90;;;;;;5100144;28;20524;-87
2022/03/13 09:54:40;;;;;;;25.13;22.33;;;23.10;31.90;;;;;;5053914;28;20444;-88
2022/03/13 09:57:07;;;;;;;25.00;22.60;;;24.00;30.20;;;;;;5064071;28;20456;-89
2022/03/13 09:59:35;;;;;;;23.37;21.00;;;24.00;29.90;;;;;;5072225;28;20443;-88
2022/03/13 10:02:04;;;;;;;25.23;22.93;;;24.40;29.90;;;;;;5072135;28;20467;-88
2022/03/13 10:04:31;;;;;;;25.83;23.13;;;24.00;29.70;;;;;;5072110;28;20490;-88
2022/03/13 10:07:06;;;;;;;23.90;21.70;;;23.80;29.60;;;;;;5070844;28;20484;-88
2022/03/13 10:09:38;;;;;;;25.70;23.20;;;24.70;29.20;;;;;;5070331;28;20462;-88
2022/03/13 10:12:11;;;;;;;24.63;22.33;;;25.90;28.60;;;;;;5061405;28;20485;-88
2022/03/13 10:14:39;;;;;;;26.80;24.20;;;25.80;28.10;;;;;;5069072;28;20453;-87
2022/03/13 10:17:49;;;;;;;27.03;24.30;;;25.90;28.10;;;;;;5074077;28;20451;-89
2022/03/13 10:20:26;;;;;;;26.20;23.80;;;25.60;28.90;;;;;;5072312;28;20459;-89
2022/03/13 10:23:04;;;;;;;26.37;23.70;;;27.00;27.90;;;;;;5051615;28;20468;-89
2022/03/13 10:25:33;;;;;;;27.00;24.57;;;27.10;26.90;;;;;;5050333;28;20459;-90
2022/03/13 10:28:17;;;;;;;27.27;24.90;;;26.20;27.30;;;;;;5052766;28;20604;-89
2022/03/13 10:30:46;;;;;;;28.13;25.23;;;26.00;27.70;;;;;;5048635;28;20484;-90
2022/03/13 10:33:13;;;;;;;28.23;25.63;;;25.90;27.50;;;;;;5049482;28;20510;-90
2022/03/13 10:35:41;;;;;;;26.87;24.17;;;25.60;27.40;;;;;;5050448;28;20455;-89
2022/03/13 10:38:15;;;;;;;28.80;26.10;;;25.30;28.20;;;;;;5055795;28;20460;-90
2022/03/13 10:40:45;;;;;;;28.20;25.70;;;24.90;28.30;;;;;;5070341;28;20476;-90
2022/03/13 10:43:18;;;;;;;27.40;24.60;;;25.60;27.90;;;;;;5069685;28;20506;-90
2022/03/13 10:46:44;;;;;;;28.07;25.47;;;26.40;27.10;;;;;;5078181;28;20455;-88
2022/03/13 10:50:06;;;;;;;28.10;25.50;;;25.70;28.30;;;;;;5086601;28;20452;-90
2022/03/13 10:52:36;;;;;;;26.70;24.20;;;27.20;27.00;;;;;;5076667;28;20475;-89
2022/03/13 10:55:19;;;;;;;29.30;26.80;;;29.20;25.50;;;;;;5070379;28;20452;-89
2022/03/13 10:57:52;;;;;;;26.67;24.27;;;29.60;24.80;;;;;;5069442;28;20457;-89
2022/03/13 11:00:21;;;;;;;27.77;25.07;;;30.10;24.60;;;;;;5080911;28;20467;-90
2022/03/13 11:02:49;;;;;;;26.20;23.77;;;29.90;24.60;;;;;;5070933;28;20508;-87
2022/03/13 11:05:16;;;;;;;27.03;24.50;;;30.10;24.60;;;;;;5079683;28;20432;-86
2022/03/13 11:07:43;;;;;;;27.97;25.30;;;30.20;24.60;;;;;;5063878;28;20436;-87
2022/03/13 11:10:11;;;;;;;28.93;26.40;;;29.30;25.30;;;;;;5067163;28;20459;-87
2022/03/13 11:12:39;;;;;;;25.93;23.83;;;30.30;24.50;;;;;;5055893;28;20479;-88
2022/03/13 11:15:08;;;;;;;27.73;25.33;;;30.70;24.00;;;;;;5055900;28;20440;-88
2022/03/13 11:17:36;;;;;;;27.87;25.47;;;31.00;23.90;;;;;;5056111;28;20938;-89
2022/03/13 11:20:08;;;;;;;28.50;26.13;;;31.50;23.40;;;;;;5055832;28;20449;-89
2022/03/13 11:22:35;;;;;;;29.23;26.73;;;31.70;23.40;;;;;;5058233;28;20467;-88
2022/03/13 11:25:05;;;;;;;26.97;24.50;;;32.00;23.20;;;;;;5057163;28;20455;-88
2022/03/13 11:27:35;;;;;;;27.80;25.10;;;32.80;22.70;;;;;;5056519;28;20944;-88
2022/03/13 11:30:02;;;;;;;28.50;25.90;;;32.60;22.60;;;;;;5059984;28;20459;-88
2022/03/13 11:32:32;;;;;;;29.63;26.83;;;33.90;22.00;;;;;;5055186;28;20522;-88
2022/03/13 11:35:29;;;;;;;28.43;25.93;;;31.60;22.30;;;;;;5055126;28;20452;-88
2022/03/13 11:38:16;;;;;;;26.77;24.37;;;31.20;23.40;;;;;;5053494;28;20824;-88
2022/03/13 11:40:55;;;;;;;27.97;25.57;;;31.50;23.20;;;;;;5059584;28;20451;-93
2022/03/13 11:43:24;;;;;;;28.47;25.43;;;31.30;23.20;;;;;;5043594;28;20508;-93
2022/03/13 11:45:53;;;;;;;28.27;25.43;;;32.20;22.60;;;;;;5038533;28;20525;-93
2022/03/13 11:48:43;;;;;;;27.47;25.07;;;31.60;22.60;;;;;;5048923;28;20444;-94
2022/03/13 11:51:12;;;;;;;29.37;26.63;;;31.20;22.80;;;;;;5071713;28;20492;-93
2022/03/13 11:53:45;;;;;;;29.87;26.83;;;29.60;23.50;;;;;;5079117;28;20464;-94
2022/03/13 11:56:21;;;;;;;29.73;27.17;;;29.60;24.00;;;;;;5074514;28;20460;-93
2022/03/13 11:58:52;;;;;;;28.10;25.57;;;30.90;23.40;;;;;;5063895;28;20443;-93
2022/03/13 12:01:21;;;;;;;30.10;27.20;;;30.20;23.20;;;;;;5060362;28;20425;-94
2022/03/13 12:04:28;;;;;;;29.50;26.90;;;30.40;23.20;;;;;;5057781;28;21071;-93
2022/03/13 12:07:01;;;;;;;30.33;27.50;;;28.40;24.60;;;;;;5060727;28;20514;-93
2022/03/13 12:09:41;;;;;;;29.20;26.50;;;29.70;24.00;;;;;;5059664;28;20926;-93
2022/03/13 12:12:09;;;;;;;30.50;27.70;;;31.40;23.40;;;;;;5058608;28;20492;-94
2022/03/13 12:14:57;;;;;;;29.77;26.97;;;31.90;22.40;;;;;;5056924;28;20462;-87
2022/03/13 12:17:26;;;;;;;28.93;26.40;;;33.00;21.80;;;;;;5056127;28;20452;-89
2022/03/13 12:19:56;;;;;;;28.73;26.27;;;32.70;21.90;;;;;;5058581;28;20445;-88
2022/03/13 12:22:25;;;;;;;30.00;27.30;;;32.20;21.50;;;;;;5059859;28;20460;-87
2022/03/13 12:24:53;;;;;;;28.97;26.30;;;31.50;22.30;;;;;;5060154;28;20828;-87
2022/03/13 12:27:22;;;;;;;28.20;25.70;;;31.70;22.30;;;;;;5054375;28;20452;-88
2022/03/13 12:29:56;;;;;;;29.83;27.03;;;31.40;22.20;;;;;;5059184;28;20438;-88
2022/03/13 12:32:33;;;;;;;30.30;27.60;;;31.10;22.10;;;;;;5059429;28;20469;-87
2022/03/13 12:35:02;;;;;;;29.40;26.53;;;30.60;22.50;;;;;;5036253;28;20453;-87
2022/03/13 12:37:29;;;;;;;28.70;26.03;;;30.20;22.70;;;;;;5034525;28;20824;-87
2022/03/13 12:39:58;;;;;;;29.20;26.40;;;30.00;23.10;;;;;;5033726;28;20454;-87
2022/03/13 12:42:26;;;;;;;27.00;24.47;;;28.90;23.50;;;;;;5033939;28;20556;-87
2022/03/13 12:45:09;;;;;;;26.73;24.13;;;28.80;23.80;;;;;;5033588;28;20456;-86